Time;durP1;ratioP1;P1;durP2;ratioP2;P2;SDS_P1;SDS_P2;PMS_P1;PMS_P2;Temp;Humidity;BMP_temperature;BMP_pressure;BME280_temperature;BME280_humidity;BME280_pressure;Samples;Min_cycle;Max_cycle;Signal;HPM_P1;HPM_P2
2023/10/27 03:13:24;;;;;;;;;;;12.70;81.90;;;11.73;74.86;94924.53;5772872;24;19924;-87
2023/10/27 03:16:48;;;;;;;;;;;12.70;81.90;;;11.75;74.76;94922.28;5821992;24;19925;-87
2023/10/27 03:36:49;;;;;;;;;;;;;;;;;;;;;
2023/10/27 03:48:04;;;;;;;;;;;;;;;;;;;;;
2023/10/27 03:51:24;;;;;;;;;;;12.80;81.30;;;11.83;74.43;94924.28;6021756;23;19928;-87
2023/10/27 03:54:54;;;;;;;;;;;12.80;81.20;;;11.81;74.27;94918.31;6061611;23;19921;-87
2023/10/27 03:57:52;;;;;;;;;;;12.80;81.10;;;11.81;74.26;94919.13;6041405;23;20360;-87
2023/10/27 04:00:44;;;;;;;;;;;12.80;80.90;;;11.78;74.15;94916.19;6080455;23;19933;-87
2023/10/27 04:07:37;;;;;;;;;;;12.80;80.90;;;11.77;73.92;94906.34;6053143;23;19922;-87
2023/10/27 04:10:40;;;;;;;;;;;12.80;80.80;;;11.77;73.93;94906.34;6069788;23;19924;-87
2023/10/27 04:13:54;;;;;;;;;;;12.80;80.80;;;11.78;73.97;94897.00;6091138;23;19928;-87
2023/10/27 04:16:50;;;;;;;;;;;12.80;80.70;;;11.75;73.82;94901.16;6090522;23;19928;-87
2023/10/27 04:19:40;;;;;;;;;;;12.70;80.60;;;11.77;74.02;94898.13;6088957;23;19927;-87
2023/10/27 04:22:41;;;;;;;;;;;12.70;80.70;;;11.76;73.90;94893.75;6113266;23;19920;-87
2023/10/27 04:25:51;;;;;;;;;;;12.70;80.70;;;11.76;74.02;94888.28;6094936;23;19921;-87
2023/10/27 04:28:32;;;;;;;;;;;12.70;80.80;;;11.78;74.05;94888.78;6089297;23;19921;-87
2023/10/27 04:38:57;;;;;;;;;;;12.70;80.60;;;11.77;73.71;94873.44;6002761;23;19937;-87
2023/10/27 04:42:25;;;;;;;;;;;12.70;80.40;;;11.77;73.63;94873.44;6108523;23;20261;-87
2023/10/27 04:46:02;;;;;;;;;;;12.70;80.40;;;11.77;73.66;94870.69;6113771;23;19920;-87
2023/10/27 04:49:27;;;;;;;;;;;12.70;80.30;;;11.72;73.18;94870.81;6090847;23;19954;-87
2023/10/27 04:52:33;;;;;;;;;;;12.70;80.20;;;11.73;73.70;94869.69;6113281;23;20326;-87
2023/10/27 04:55:51;;;;;;;;;;;12.70;80.20;;;11.72;72.99;94870.81;6108422;23;20360;-87
2023/10/27 04:59:05;;;;;;;;;;;;;;;;;;;;;
2023/10/27 05:02:41;;;;;;;;;;;12.70;79.80;;;11.66;73.06;94868.22;6093407;23;19920;-87
2023/10/27 05:08:47;;;;;;;;;;;12.60;79.70;;;11.67;72.92;94871.75;6110842;23;19931;-87
2023/10/27 05:14:54;;;;;;;;;;;12.60;79.80;;;11.68;72.94;94884.34;6092259;23;19925;-87
2023/10/27 05:17:38;;;;;;;;;;;12.70;79.70;;;11.64;72.75;94875.94;6088263;23;19921;-87
2023/10/27 05:27:22;;;;;;;;;;;12.60;79.50;;;11.64;73.05;94875.94;6107872;23;19925;-88
2023/10/27 05:29:55;;;;;;;;;;;12.60;79.60;;;11.65;73.03;94876.72;6089699;23;19920;-87
2023/10/27 05:32:32;;;;;;;;;;;12.60;79.60;;;11.64;72.86;94864.97;6123054;23;20264;-87
2023/10/27 05:35:10;;;;;;;;;;;12.60;79.50;;;11.65;72.97;94871.25;6089108;23;19921;-87
2023/10/27 05:37:47;;;;;;;;;;;12.70;79.70;;;11.64;72.97;94864.13;6111614;23;19928;-87
2023/10/27 05:40:15;;;;;;;;;;;12.70;79.80;;;11.68;72.99;94875.31;6112643;23;19920;-87
2023/10/27 05:42:44;;;;;;;;;;;12.70;79.80;;;11.70;73.03;94873.03;6088707;23;19921;-87
2023/10/27 05:45:14;;;;;;;;;;;12.70;79.70;;;11.69;73.09;94855.81;6112968;23;19920;-87
2023/10/27 05:47:55;;;;;;;;;;;12.70;79.80;;;11.68;72.87;94854.19;6089335;23;20367;-87
2023/10/27 05:50:23;;;;;;;;;;;12.70;79.80;;;11.72;72.82;94871.63;6111213;23;19920;-87
2023/10/27 05:52:52;;;;;;;;;;;12.70;79.60;;;11.71;72.89;94858.22;6088987;23;19921;-87
2023/10/27 05:55:20;;;;;;;;;;;12.70;79.70;;;11.73;73.17;94858.72;6112428;23;19920;-87
2023/10/27 05:57:48;;;;;;;;;;;12.70;79.80;;;11.75;73.08;94853.75;6064779;23;19921;-87
2023/10/27 06:00:20;;;;;;;;;;;12.70;79.80;;;11.76;72.90;94858.91;6112499;23;19920;-87
2023/10/27 06:02:52;;;;;;;;;;;12.70;79.80;;;11.75;72.90;94854.53;6113132;23;19927;-87
2023/10/27 06:05:24;;;;;;;;;;;12.70;79.60;;;11.76;72.69;94858.09;6089778;23;19920;-87
2023/10/27 06:07:53;;;;;;;;;;;12.70;79.60;;;11.77;72.62;94857.78;6112723;23;19920;-87
2023/10/27 06:10:21;;;;;;;;;;;12.80;79.50;;;11.78;72.90;94861.34;6088443;23;19921;-87
2023/10/27 06:12:49;;;;;;;;;;;12.80;79.50;;;11.77;73.07;94857.78;6088716;23;20356;-87
2023/10/27 06:15:18;;;;;;;;;;;12.80;79.50;;;11.78;72.91;94864.09;6112393;23;19928;-87
2023/10/27 06:17:46;;;;;;;;;;;12.80;79.50;;;11.76;72.65;94860.84;6088714;23;19921;-87
2023/10/27 06:20:16;;;;;;;;;;;12.80;79.50;;;11.77;72.77;94867.97;6111903;23;19932;-87
2023/10/27 06:22:45;;;;;;;;;;;12.70;79.50;;;11.74;72.72;94865.84;6088757;23;19924;-87
2023/10/27 06:25:13;;;;;;;;;;;12.80;79.60;;;11.76;72.80;94852.63;6112833;23;19927;-87
2023/10/27 06:27:42;;;;;;;;;;;12.70;79.60;;;11.74;73.03;94852.13;6112238;23;19920;-87
2023/10/27 06:30:14;;;;;;;;;;;12.70;79.70;;;11.74;72.77;94847.47;6089606;23;19920;-87
2023/10/27 06:32:42;;;;;;;;;;;12.70;79.70;;;11.72;72.95;94854.38;6113619;23;19928;-87
2023/10/27 06:35:11;;;;;;;;;;;12.70;79.80;;;11.73;73.15;94845.84;6090785;23;19920;-87
2023/10/27 06:37:41;;;;;;;;;;;12.70;79.70;;;11.72;73.09;94851.63;6103527;23;19920;-87
2023/10/27 06:40:12;;;;;;;;;;;12.70;79.80;;;11.73;73.20;94851.31;6114524;23;19911;-87
2023/10/27 06:42:41;;;;;;;;;;;12.70;79.80;;;11.70;73.20;94845.63;6114762;23;19956;-87
2023/10/27 06:45:09;;;;;;;;;;;12.70;79.90;;;11.72;73.01;94840.66;6140361;23;19948;-87
2023/10/27 06:47:39;;;;;;;;;;;12.70;79.90;;;11.70;73.14;94837.41;6113979;23;19905;-87
2023/10/27 06:50:08;;;;;;;;;;;12.70;80.10;;;11.72;73.26;94835.16;6140361;23;19948;-87
2023/10/27 06:52:39;;;;;;;;;;;12.70;80.10;;;11.72;73.01;94829.69;6176905;23;19936;-87
2023/10/27 06:55:09;;;;;;;;;;;12.70;79.80;;;11.73;73.34;94839.53;6089994;23;19905;-87
2023/10/27 06:57:39;;;;;;;;;;;12.70;80.10;;;11.74;73.45;94830.19;6115686;23;19921;-87
2023/10/27 07:00:09;;;;;;;;;;;12.70;80.30;;;11.74;73.63;94841.16;6089462;23;20264;-87
2023/10/27 07:02:37;;;;;;;;;;;12.70;80.30;;;11.74;73.48;94827.44;6112575;23;19920;-87
2023/10/27 07:05:08;;;;;;;;;;;12.70;80.30;;;11.73;73.68;94823.09;6112643;23;19932;-87
2023/10/27 07:07:47;;;;;;;;;;;12.70;80.50;;;11.74;73.50;94817.31;6088605;23;19920;-87
2023/10/27 07:10:19;;;;;;;;;;;12.70;80.60;;;11.72;73.75;94815.97;6088245;23;20260;-87
2023/10/27 07:12:50;;;;;;;;;;;12.70;80.80;;;11.73;73.64;94804.72;6111621;23;19920;-87
2023/10/27 07:15:38;;;;;;;;;;;12.70;80.80;;;11.77;73.37;94813.13;6088738;23;19928;-87
2023/10/27 07:18:09;;;;;;;;;;;12.70;80.70;;;11.78;73.89;94814.75;6113127;23;20256;-87
2023/10/27 07:20:40;;;;;;;;;;;12.70;80.70;;;11.82;73.83;94810.22;6111666;23;19920;-87
2023/10/27 07:23:10;;;;;;;;;;;12.70;80.80;;;11.79;73.61;94814.41;6088758;23;20229;-87
2023/10/27 07:25:43;;;;;;;;;;;12.80;80.70;;;11.83;73.91;94814.59;6123682;23;19921;-87
2023/10/27 07:28:17;;;;;;;;;;;12.80;80.70;;;11.84;73.76;94810.75;6112724;23;19935;-87
2023/10/27 07:30:46;;;;;;;;;;;12.80;80.70;;;11.83;74.03;94811.84;6122276;23;19921;-87
2023/10/27 07:33:15;;;;;;;;;;;12.80;80.80;;;11.86;74.02;94813.97;6088345;23;20344;-87
2023/10/27 07:35:50;;;;;;;;;;;12.80;80.80;;;11.84;74.06;94808.00;6112543;23;19940;-87
2023/10/27 07:38:20;;;;;;;;;;;12.80;80.90;;;11.86;74.04;94805.75;6111440;23;19921;-87
2023/10/27 07:40:51;;;;;;;;;;;12.80;81.00;;;11.84;74.32;94807.19;6111006;23;19928;-87
2023/10/27 07:43:19;;;;;;;;;;;12.80;81.10;;;11.83;74.18;94800.88;6110932;23;19927;-87
2023/10/27 07:45:54;;;;;;;;;;;12.80;81.20;;;11.85;74.42;94819.78;6112327;23;20256;-87
2023/10/27 07:48:32;;;;;;;;;;;12.80;81.20;;;11.83;74.31;94809.13;6112361;23;20336;-87
2023/10/27 07:51:05;;;;;;;;;;;12.80;81.20;;;11.87;74.62;94815.59;6111281;23;19920;-87
2023/10/27 07:53:44;;;;;;;;;;;12.80;81.40;;;11.85;74.37;94806.88;6088840;23;20447;-87
2023/10/27 07:56:35;;;;;;;;;;;12.80;81.40;;;11.89;74.58;94818.84;6088617;23;19928;-87
2023/10/27 07:59:10;;;;;;;;;;;12.80;81.60;;;11.90;75.36;94806.75;6112471;23;19921;-88
2023/10/27 08:01:43;;;;;;;;;;;12.80;82.50;;;11.87;76.00;94801.91;6088415;23;19921;-87
2023/10/27 08:04:32;;;;;;;;;;;12.80;83.00;;;11.87;75.81;94812.84;6088421;23;19927;-87
2023/10/27 08:07:11;;;;;;;;;;;12.80;83.00;;;11.88;75.22;94802.69;6112466;23;20260;-87
2023/10/27 08:10:08;;;;;;;;;;;12.80;82.20;;;11.88;75.20;94798.03;6088190;23;19921;-87
2023/10/27 08:13:32;;;;;;;;;;;12.80;82.10;;;11.91;75.99;94802.91;6112564;23;20364;-87
2023/10/27 08:16:30;;;;;;;;;;;;;;;;;;;;;
2023/10/27 08:19:18;;;;;;;;;;;12.90;83.50;;;11.95;76.49;94809.34;6086856;23;19932;-87
2023/10/27 08:25:53;;;;;;;;;;;12.90;84.10;;;12.02;76.22;94799.91;6078541;23;19928;-87
2023/10/27 20:15:21;;;;;;;;;;;13.30;81.10;;;12.33;74.03;94621.53;6112152;23;19920;-87
